sensor_id;sensor_type;location;lat;lon;timestamp;P1;durP1;ratioP1;P2;durP2;ratioP2
67185;SDS011;54116;53.518;49.398;2022-09-09T00:04:26;4.70;;;1.70;;
67185;SDS011;54116;53.518;49.398;2022-09-09T00:07:14;5.10;;;1.58;;
67185;SDS011;54116;53.518;49.398;2022-09-09T00:09:55;3.63;;;1.30;;
67185;SDS011;54116;53.518;49.398;2022-09-09T00:12:41;3.55;;;1.33;;
67185;SDS011;54116;53.518;49.398;2022-09-09T00:15:22;3.47;;;1.55;;
67185;SDS011;54116;53.518;49.398;2022-09-09T00:21:08;4.43;;;1.58;;
67185;SDS011;54116;53.518;49.398;2022-09-09T00:23:44;4.15;;;1.63;;
67185;SDS011;54116;53.518;49.398;2022-09-09T00:26:19;3.67;;;1.63;;
67185;SDS011;54116;53.518;49.398;2022-09-09T00:31:34;3.40;;;1.50;;
67185;SDS011;54116;53.518;49.398;2022-09-09T00:34:04;3.45;;;1.33;;
67185;SDS011;54116;53.518;49.398;2022-09-09T00:36:43;4.07;;;1.90;;
67185;SDS011;54116;53.518;49.398;2022-09-09T00:39:13;3.40;;;1.27;;
67185;SDS011;54116;53.518;49.398;2022-09-09T00:44:28;5.28;;;1.73;;
67185;SDS011;54116;53.518;49.398;2022-09-09T00:50:05;4.57;;;1.98;;
67185;SDS011;54116;53.518;49.398;2022-09-09T00:58:16;3.78;;;1.60;;
67185;SDS011;54116;53.518;49.398;2022-09-09T01:03:36;4.22;;;1.63;;
67185;SDS011;54116;53.518;49.398;2022-09-09T01:09:04;4.10;;;1.60;;
67185;SDS011;54116;53.518;49.398;2022-09-09T01:11:51;3.80;;;1.67;;
67185;SDS011;54116;53.518;49.398;2022-09-09T01:17:03;4.47;;;1.90;;
67185;SDS011;54116;53.518;49.398;2022-09-09T01:27:38;4.32;;;1.90;;
67185;SDS011;54116;53.518;49.398;2022-09-09T01:30:10;6.03;;;2.28;;
67185;SDS011;54116;53.518;49.398;2022-09-09T01:32:42;5.40;;;1.63;;
67185;SDS011;54116;53.518;49.398;2022-09-09T01:35:15;4.68;;;1.92;;
67185;SDS011;54116;53.518;49.398;2022-09-09T01:37:57;5.53;;;1.85;;
67185;SDS011;54116;53.518;49.398;2022-09-09T01:40:24;3.97;;;1.73;;
67185;SDS011;54116;53.518;49.398;2022-09-09T01:42:50;6.68;;;1.83;;
67185;SDS011;54116;53.518;49.398;2022-09-09T01:45:17;4.13;;;1.58;;
67185;SDS011;54116;53.518;49.398;2022-09-09T01:47:44;4.15;;;1.90;;
67185;SDS011;54116;53.518;49.398;2022-09-09T01:50:12;4.30;;;1.50;;
67185;SDS011;54116;53.518;49.398;2022-09-09T01:52:40;4.60;;;1.75;;
67185;SDS011;54116;53.518;49.398;2022-09-09T01:55:07;5.30;;;2.38;;
67185;SDS011;54116;53.518;49.398;2022-09-09T01:57:44;5.85;;;2.38;;
67185;SDS011;54116;53.518;49.398;2022-09-09T02:00:30;5.68;;;2.10;;
67185;SDS011;54116;53.518;49.398;2022-09-09T02:05:55;5.00;;;2.13;;
67185;SDS011;54116;53.518;49.398;2022-09-09T02:08:36;4.65;;;2.00;;
67185;SDS011;54116;53.518;49.398;2022-09-09T02:11:11;5.40;;;2.15;;
67185;SDS011;54116;53.518;49.398;2022-09-09T02:13:46;5.38;;;2.13;;
67185;SDS011;54116;53.518;49.398;2022-09-09T02:19:08;4.65;;;2.33;;
67185;SDS011;54116;53.518;49.398;2022-09-09T02:21:42;5.57;;;2.00;;
67185;SDS011;54116;53.518;49.398;2022-09-09T02:24:11;4.90;;;2.20;;
67185;SDS011;54116;53.518;49.398;2022-09-09T02:26:40;4.95;;;2.20;;
67185;SDS011;54116;53.518;49.398;2022-09-09T02:29:12;6.63;;;2.45;;
67185;SDS011;54116;53.518;49.398;2022-09-09T02:31:42;4.72;;;2.20;;
67185;SDS011;54116;53.518;49.398;2022-09-09T02:34:11;4.95;;;2.17;;
67185;SDS011;54116;53.518;49.398;2022-09-09T02:36:40;8.27;;;2.30;;
67185;SDS011;54116;53.518;49.398;2022-09-09T02:39:08;6.05;;;2.50;;
67185;SDS011;54116;53.518;49.398;2022-09-09T02:41:39;6.60;;;2.80;;
67185;SDS011;54116;53.518;49.398;2022-09-09T02:44:11;6.78;;;2.53;;
67185;SDS011;54116;53.518;49.398;2022-09-09T02:50:05;6.88;;;1.92;;
67185;SDS011;54116;53.518;49.398;2022-09-09T02:53:02;5.32;;;2.30;;
67185;SDS011;54116;53.518;49.398;2022-09-09T02:55:39;5.13;;;2.13;;
67185;SDS011;54116;53.518;49.398;2022-09-09T02:58:06;5.38;;;1.92;;
67185;SDS011;54116;53.518;49.398;2022-09-09T03:00:37;5.03;;;2.20;;
67185;SDS011;54116;53.518;49.398;2022-09-09T03:03:05;6.55;;;2.10;;
67185;SDS011;54116;53.518;49.398;2022-09-09T03:05:34;4.57;;;1.95;;
67185;SDS011;54116;53.518;49.398;2022-09-09T03:08:01;3.60;;;1.63;;
67185;SDS011;54116;53.518;49.398;2022-09-09T03:10:27;5.57;;;2.40;;
67185;SDS011;54116;53.518;49.398;2022-09-09T03:12:54;6.63;;;2.40;;
67185;SDS011;54116;53.518;49.398;2022-09-09T03:15:20;5.90;;;1.95;;
67185;SDS011;54116;53.518;49.398;2022-09-09T03:17:47;10.98;;;2.28;;
67185;SDS011;54116;53.518;49.398;2022-09-09T03:20:13;5.88;;;1.92;;
67185;SDS011;54116;53.518;49.398;2022-09-09T03:22:39;5.75;;;2.00;;
67185;SDS011;54116;53.518;49.398;2022-09-09T03:25:05;6.28;;;1.88;;
67185;SDS011;54116;53.518;49.398;2022-09-09T03:27:32;6.00;;;2.00;;
67185;SDS011;54116;53.518;49.398;2022-09-09T03:29:58;5.63;;;1.95;;
67185;SDS011;54116;53.518;49.398;2022-09-09T03:32:24;5.28;;;2.05;;
67185;SDS011;54116;53.518;49.398;2022-09-09T03:34:51;5.53;;;2.35;;
67185;SDS011;54116;53.518;49.398;2022-09-09T03:37:18;6.28;;;2.28;;
67185;SDS011;54116;53.518;49.398;2022-09-09T03:39:45;6.47;;;2.75;;
67185;SDS011;54116;53.518;49.398;2022-09-09T03:42:14;6.13;;;2.45;;
67185;SDS011;54116;53.518;49.398;2022-09-09T03:44:44;5.80;;;2.53;;
67185;SDS011;54116;53.518;49.398;2022-09-09T03:47:18;6.47;;;3.13;;
67185;SDS011;54116;53.518;49.398;2022-09-09T03:49:47;6.85;;;3.03;;
67185;SDS011;54116;53.518;49.398;2022-09-09T03:52:16;7.45;;;3.03;;
67185;SDS011;54116;53.518;49.398;2022-09-09T03:54:44;7.95;;;3.25;;
67185;SDS011;54116;53.518;49.398;2022-09-09T03:57:10;7.97;;;2.90;;
67185;SDS011;54116;53.518;49.398;2022-09-09T03:59:36;7.90;;;3.38;;
67185;SDS011;54116;53.518;49.398;2022-09-09T04:02:02;6.57;;;2.78;;
67185;SDS011;54116;53.518;49.398;2022-09-09T04:04:29;7.80;;;3.15;;
67185;SDS011;54116;53.518;49.398;2022-09-09T04:06:55;8.27;;;3.35;;
67185;SDS011;54116;53.518;49.398;2022-09-09T04:09:21;10.75;;;3.83;;
67185;SDS011;54116;53.518;49.398;2022-09-09T04:11:47;10.93;;;4.00;;
67185;SDS011;54116;53.518;49.398;2022-09-09T04:14:14;8.57;;;3.70;;
67185;SDS011;54116;53.518;49.398;2022-09-09T04:16:41;12.35;;;4.22;;
67185;SDS011;54116;53.518;49.398;2022-09-09T04:19:11;13.18;;;3.95;;
67185;SDS011;54116;53.518;49.398;2022-09-09T04:21:39;8.68;;;3.60;;
67185;SDS011;54116;53.518;49.398;2022-09-09T04:24:06;9.32;;;3.63;;
67185;SDS011;54116;53.518;49.398;2022-09-09T04:26:34;9.88;;;3.85;;
67185;SDS011;54116;53.518;49.398;2022-09-09T04:29:02;10.80;;;4.45;;
67185;SDS011;54116;53.518;49.398;2022-09-09T04:31:29;9.25;;;4.45;;
67185;SDS011;54116;53.518;49.398;2022-09-09T04:33:55;8.40;;;4.22;;
67185;SDS011;54116;53.518;49.398;2022-09-09T04:36:21;10.52;;;4.25;;
67185;SDS011;54116;53.518;49.398;2022-09-09T04:38:48;9.38;;;3.28;;
67185;SDS011;54116;53.518;49.398;2022-09-09T04:41:16;7.28;;;2.90;;
67185;SDS011;54116;53.518;49.398;2022-09-09T04:43:43;7.80;;;3.00;;
67185;SDS011;54116;53.518;49.398;2022-09-09T04:46:10;6.13;;;2.45;;
67185;SDS011;54116;53.518;49.398;2022-09-09T04:48:36;6.88;;;2.78;;
67185;SDS011;54116;53.518;49.398;2022-09-09T04:51:05;6.90;;;2.80;;
67185;SDS011;54116;53.518;49.398;2022-09-09T04:53:32;7.15;;;2.83;;
67185;SDS011;54116;53.518;49.398;2022-09-09T04:56:12;8.15;;;2.95;;
67185;SDS011;54116;53.518;49.398;2022-09-09T04:58:41;6.95;;;2.35;;
67185;SDS011;54116;53.518;49.398;2022-09-09T05:01:09;4.03;;;2.10;;
67185;SDS011;54116;53.518;49.398;2022-09-09T05:03:37;4.88;;;2.00;;
67185;SDS011;54116;53.518;49.398;2022-09-09T05:06:07;5.00;;;2.17;;
67185;SDS011;54116;53.518;49.398;2022-09-09T05:08:36;7.32;;;2.33;;
67185;SDS011;54116;53.518;49.398;2022-09-09T05:11:03;5.35;;;2.42;;
67185;SDS011;54116;53.518;49.398;2022-09-09T05:13:38;3.80;;;1.63;;
67185;SDS011;54116;53.518;49.398;2022-09-09T05:16:04;6.07;;;1.95;;
67185;SDS011;54116;53.518;49.398;2022-09-09T05:18:30;5.32;;;2.33;;
67185;SDS011;54116;53.518;49.398;2022-09-09T05:20:59;5.15;;;2.22;;
67185;SDS011;54116;53.518;49.398;2022-09-09T05:23:25;5.32;;;2.30;;
67185;SDS011;54116;53.518;49.398;2022-09-09T05:25:55;6.53;;;2.60;;
67185;SDS011;54116;53.518;49.398;2022-09-09T05:28:26;7.18;;;2.00;;
67185;SDS011;54116;53.518;49.398;2022-09-09T05:31:02;4.63;;;2.25;;
67185;SDS011;54116;53.518;49.398;2022-09-09T05:33:31;7.13;;;2.42;;
67185;SDS011;54116;53.518;49.398;2022-09-09T05:35:59;4.18;;;1.70;;
67185;SDS011;54116;53.518;49.398;2022-09-09T05:38:33;4.95;;;1.92;;
67185;SDS011;54116;53.518;49.398;2022-09-09T05:41:01;5.43;;;1.98;;
67185;SDS011;54116;53.518;49.398;2022-09-09T05:43:28;3.67;;;1.35;;
67185;SDS011;54116;53.518;49.398;2022-09-09T05:46:14;2.85;;;1.30;;
67185;SDS011;54116;53.518;49.398;2022-09-09T05:48:42;3.55;;;1.50;;
67185;SDS011;54116;53.518;49.398;2022-09-09T05:51:12;3.83;;;1.35;;
67185;SDS011;54116;53.518;49.398;2022-09-09T05:53:43;5.63;;;1.40;;
67185;SDS011;54116;53.518;49.398;2022-09-09T05:56:13;3.58;;;1.38;;
67185;SDS011;54116;53.518;49.398;2022-09-09T05:58:41;3.85;;;1.15;;
67185;SDS011;54116;53.518;49.398;2022-09-09T06:01:11;4.78;;;1.13;;
67185;SDS011;54116;53.518;49.398;2022-09-09T06:03:51;4.60;;;1.38;;
67185;SDS011;54116;53.518;49.398;2022-09-09T06:06:19;5.15;;;1.13;;
67185;SDS011;54116;53.518;49.398;2022-09-09T06:08:47;3.90;;;0.90;;
67185;SDS011;54116;53.518;49.398;2022-09-09T06:11:18;3.45;;;1.10;;
67185;SDS011;54116;53.518;49.398;2022-09-09T06:13:47;3.17;;;1.00;;
67185;SDS011;54116;53.518;49.398;2022-09-09T06:16:14;4.53;;;1.20;;
67185;SDS011;54116;53.518;49.398;2022-09-09T06:18:43;3.70;;;1.00;;
67185;SDS011;54116;53.518;49.398;2022-09-09T06:21:16;2.00;;;0.82;;
67185;SDS011;54116;53.518;49.398;2022-09-09T06:23:44;3.33;;;1.50;;
67185;SDS011;54116;53.518;49.398;2022-09-09T06:26:17;3.83;;;1.20;;
67185;SDS011;54116;53.518;49.398;2022-09-09T06:28:45;4.32;;;1.20;;
67185;SDS011;54116;53.518;49.398;2022-09-09T06:31:13;3.45;;;0.93;;
67185;SDS011;54116;53.518;49.398;2022-09-09T06:33:42;2.72;;;1.02;;
67185;SDS011;54116;53.518;49.398;2022-09-09T06:36:10;5.15;;;1.52;;
67185;SDS011;54116;53.518;49.398;2022-09-09T06:38:38;3.83;;;1.23;;
67185;SDS011;54116;53.518;49.398;2022-09-09T06:41:04;6.72;;;1.85;;
67185;SDS011;54116;53.518;49.398;2022-09-09T06:43:31;4.88;;;1.52;;
67185;SDS011;54116;53.518;49.398;2022-09-09T06:48:31;3.35;;;1.15;;
67185;SDS011;54116;53.518;49.398;2022-09-09T06:51:02;3.17;;;1.10;;
67185;SDS011;54116;53.518;49.398;2022-09-09T06:53:28;3.10;;;0.90;;
67185;SDS011;54116;53.518;49.398;2022-09-09T06:55:54;1.75;;;0.70;;
67185;SDS011;54116;53.518;49.398;2022-09-09T06:58:20;1.58;;;0.57;;
67185;SDS011;54116;53.518;49.398;2022-09-09T07:00:49;1.60;;;0.63;;
67185;SDS011;54116;53.518;49.398;2022-09-09T07:03:15;2.47;;;0.85;;
67185;SDS011;54116;53.518;49.398;2022-09-09T07:05:41;2.45;;;0.75;;
67185;SDS011;54116;53.518;49.398;2022-09-09T07:08:10;3.35;;;1.10;;
67185;SDS011;54116;53.518;49.398;2022-09-09T07:10:36;2.47;;;0.98;;
67185;SDS011;54116;53.518;49.398;2022-09-09T07:13:02;3.00;;;0.70;;
67185;SDS011;54116;53.518;49.398;2022-09-09T07:15:29;3.15;;;0.70;;
67185;SDS011;54116;53.518;49.398;2022-09-09T07:17:55;1.95;;;0.80;;
67185;SDS011;54116;53.518;49.398;2022-09-09T07:20:25;2.28;;;0.65;;
67185;SDS011;54116;53.518;49.398;2022-09-09T07:22:54;2.40;;;0.90;;
67185;SDS011;54116;53.518;49.398;2022-09-09T07:25:20;1.70;;;0.90;;
67185;SDS011;54116;53.518;49.398;2022-09-09T07:27:47;3.05;;;1.20;;
67185;SDS011;54116;53.518;49.398;2022-09-09T07:30:14;2.17;;;0.80;;
67185;SDS011;54116;53.518;49.398;2022-09-09T07:32:40;3.88;;;1.05;;
67185;SDS011;54116;53.518;49.398;2022-09-09T07:35:06;2.25;;;0.70;;
67185;SDS011;54116;53.518;49.398;2022-09-09T07:37:32;2.80;;;1.02;;
67185;SDS011;54116;53.518;49.398;2022-09-09T07:40:01;2.55;;;0.75;;
67185;SDS011;54116;53.518;49.398;2022-09-09T07:42:32;2.25;;;1.00;;
67185;SDS011;54116;53.518;49.398;2022-09-09T07:44:58;2.20;;;0.95;;
67185;SDS011;54116;53.518;49.398;2022-09-09T07:47:24;3.03;;;1.05;;
67185;SDS011;54116;53.518;49.398;2022-09-09T07:49:50;2.85;;;1.15;;
67185;SDS011;54116;53.518;49.398;2022-09-09T07:52:16;3.00;;;0.98;;
67185;SDS011;54116;53.518;49.398;2022-09-09T07:54:43;1.70;;;0.80;;
67185;SDS011;54116;53.518;49.398;2022-09-09T07:57:11;2.67;;;1.00;;
67185;SDS011;54116;53.518;49.398;2022-09-09T07:59:37;3.55;;;1.10;;
67185;SDS011;54116;53.518;49.398;2022-09-09T08:02:03;2.80;;;1.02;;
67185;SDS011;54116;53.518;49.398;2022-09-09T08:04:30;2.83;;;0.85;;
67185;SDS011;54116;53.518;49.398;2022-09-09T08:06:57;2.40;;;0.98;;
67185;SDS011;54116;53.518;49.398;2022-09-09T08:09:25;2.08;;;0.90;;
67185;SDS011;54116;53.518;49.398;2022-09-09T08:11:54;2.53;;;1.25;;
67185;SDS011;54116;53.518;49.398;2022-09-09T08:14:26;1.90;;;0.90;;
67185;SDS011;54116;53.518;49.398;2022-09-09T08:16:52;3.28;;;1.00;;
67185;SDS011;54116;53.518;49.398;2022-09-09T08:19:19;6.30;;;0.73;;
67185;SDS011;54116;53.518;49.398;2022-09-09T08:21:45;1.42;;;0.50;;
67185;SDS011;54116;53.518;49.398;2022-09-09T08:24:12;1.38;;;0.63;;
67185;SDS011;54116;53.518;49.398;2022-09-09T08:26:42;1.35;;;0.47;;
67185;SDS011;54116;53.518;49.398;2022-09-09T08:29:12;1.67;;;0.40;;
67185;SDS011;54116;53.518;49.398;2022-09-09T08:31:40;1.20;;;0.68;;
67185;SDS011;54116;53.518;49.398;2022-09-09T08:34:08;2.65;;;0.57;;
67185;SDS011;54116;53.518;49.398;2022-09-09T08:36:37;1.65;;;0.82;;
67185;SDS011;54116;53.518;49.398;2022-09-09T08:39:05;1.08;;;0.63;;
67185;SDS011;54116;53.518;49.398;2022-09-09T08:50:22;1.77;;;0.70;;
67185;SDS011;54116;53.518;49.398;2022-09-09T08:53:09;1.85;;;0.63;;
67185;SDS011;54116;53.518;49.398;2022-09-09T08:58:33;2.55;;;0.90;;
67185;SDS011;54116;53.518;49.398;2022-09-09T09:03:55;2.45;;;0.80;;
67185;SDS011;54116;53.518;49.398;2022-09-09T09:11:38;1.33;;;0.63;;
67185;SDS011;54116;53.518;49.398;2022-09-09T09:14:21;1.92;;;0.73;;
67185;SDS011;54116;53.518;49.398;2022-09-09T09:19:20;1.88;;;0.38;;
67185;SDS011;54116;53.518;49.398;2022-09-09T09:30:10;1.30;;;0.50;;
67185;SDS011;54116;53.518;49.398;2022-09-09T09:32:40;2.47;;;0.60;;
67185;SDS011;54116;53.518;49.398;2022-09-09T09:35:13;1.70;;;0.30;;
67185;SDS011;54116;53.518;49.398;2022-09-09T09:37:40;0.77;;;0.50;;
67185;SDS011;54116;53.518;49.398;2022-09-09T09:40:09;1.60;;;0.30;;
67185;SDS011;54116;53.518;49.398;2022-09-09T09:42:53;0.63;;;0.38;;
67185;SDS011;54116;53.518;49.398;2022-09-09T09:45:41;1.42;;;0.30;;
67185;SDS011;54116;53.518;49.398;2022-09-09T09:48:10;0.63;;;0.20;;
67185;SDS011;54116;53.518;49.398;2022-09-09T09:51:08;1.92;;;0.35;;
67185;SDS011;54116;53.518;49.398;2022-09-09T09:53:41;1.60;;;0.50;;
67185;SDS011;54116;53.518;49.398;2022-09-09T09:56:08;0.50;;;0.40;;
67185;SDS011;54116;53.518;49.398;2022-09-09T10:01:45;2.35;;;0.45;;
67185;SDS011;54116;53.518;49.398;2022-09-09T10:04:21;0.95;;;0.38;;
67185;SDS011;54116;53.518;49.398;2022-09-09T10:06:49;0.38;;;0.28;;
67185;SDS011;54116;53.518;49.398;2022-09-09T10:19:37;1.25;;;0.52;;
67185;SDS011;54116;53.518;49.398;2022-09-09T10:22:18;2.40;;;0.80;;
67185;SDS011;54116;53.518;49.398;2022-09-09T10:35:25;1.88;;;0.52;;
67185;SDS011;54116;53.518;49.398;2022-09-09T10:40:43;1.33;;;0.60;;
67185;SDS011;54116;53.518;49.398;2022-09-09T10:54:32;1.80;;;0.73;;
67185;SDS011;54116;53.518;49.398;2022-09-09T10:57:05;1.33;;;0.45;;
67185;SDS011;54116;53.518;49.398;2022-09-09T10:59:43;1.45;;;0.57;;
67185;SDS011;54116;53.518;49.398;2022-09-09T11:02:25;2.72;;;0.75;;
67185;SDS011;54116;53.518;49.398;2022-09-09T11:07:41;2.63;;;0.65;;
67185;SDS011;54116;53.518;49.398;2022-09-09T11:10:16;3.08;;;0.73;;
67185;SDS011;54116;53.518;49.398;2022-09-09T11:12:50;2.60;;;0.52;;
67185;SDS011;54116;53.518;49.398;2022-09-09T11:15:23;1.55;;;0.70;;
67185;SDS011;54116;53.518;49.398;2022-09-09T11:17:56;1.15;;;0.50;;
67185;SDS011;54116;53.518;49.398;2022-09-09T11:20:26;3.08;;;0.55;;
67185;SDS011;54116;53.518;49.398;2022-09-09T11:22:54;0.90;;;0.40;;
67185;SDS011;54116;53.518;49.398;2022-09-09T11:25:45;1.85;;;0.60;;
67185;SDS011;54116;53.518;49.398;2022-09-09T11:40:23;2.00;;;0.32;;
67185;SDS011;54116;53.518;49.398;2022-09-09T11:43:09;1.17;;;0.43;;
67185;SDS011;54116;53.518;49.398;2022-09-09T11:45:43;1.17;;;0.52;;
67185;SDS011;54116;53.518;49.398;2022-09-09T11:48:33;0.77;;;0.30;;
67185;SDS011;54116;53.518;49.398;2022-09-09T11:53:51;0.90;;;0.35;;
67185;SDS011;54116;53.518;49.398;2022-09-09T11:56:41;3.25;;;0.73;;
67185;SDS011;54116;53.518;49.398;2022-09-09T12:06:59;1.23;;;0.52;;
